createdAt,value
2019-02-02T00:06:35.580Z,17.00
2019-02-02T00:11:57.779Z,16.67
2019-02-02T00:17:19.955Z,16.93
2019-02-02T00:22:42.145Z,15.80
2019-02-02T00:28:25.716Z,17.03
2019-02-02T00:33:47.884Z,15.20
2019-02-02T00:39:10.159Z,15.33
2019-02-02T00:44:32.342Z,18.07
2019-02-02T00:49:54.548Z,17.37
2019-02-02T00:55:16.955Z,16.10
2019-02-02T01:00:39.129Z,16.50
2019-02-02T01:06:01.319Z,16.00
2019-02-02T01:11:23.498Z,17.13
2019-02-02T01:16:39.010Z,16.00
2019-02-02T01:22:01.258Z,16.03
2019-02-02T01:27:23.441Z,16.13
2019-02-02T01:32:45.628Z,16.00
2019-02-02T01:38:07.958Z,18.47
2019-02-02T01:43:30.139Z,18.27
2019-02-02T01:48:52.330Z,17.17
2019-02-02T01:54:14.497Z,16.60
2019-02-02T01:59:36.697Z,17.10
2019-02-02T02:04:39.773Z,17.83
2019-02-02T02:10:02.754Z,17.20
2019-02-02T02:15:18.782Z,17.70
2019-02-02T02:20:41.228Z,17.53
2019-02-02T02:26:03.381Z,17.10
2019-02-02T02:31:25.563Z,18.20
2019-02-02T02:36:47.766Z,16.83
2019-02-02T02:42:09.940Z,16.60
2019-02-02T02:47:12.605Z,17.37
2019-02-02T02:52:34.795Z,16.97
2019-02-02T02:57:56.976Z,17.87
2019-02-02T03:02:59.645Z,16.63
2019-02-02T03:08:21.819Z,16.70
2019-02-02T03:13:36.699Z,18.57
2019-02-02T03:18:58.885Z,17.20
2019-02-02T03:24:21.030Z,16.40
2019-02-02T03:29:43.226Z,18.07
2019-02-02T03:35:14.440Z,16.20
2019-02-02T03:40:36.623Z,17.57
2019-02-02T03:45:58.843Z,16.70
2019-02-02T03:51:21.069Z,16.93
2019-02-02T03:56:43.246Z,15.40
2019-02-02T04:02:05.414Z,18.50
2019-02-02T04:07:27.585Z,16.40
2019-02-02T04:12:43.136Z,17.17
2019-02-02T04:17:45.944Z,16.43
2019-02-02T04:23:08.123Z,16.20
2019-02-02T04:28:10.858Z,16.70
2019-02-02T04:33:33.048Z,19.10
2019-02-02T04:38:55.243Z,16.40
2019-02-02T04:44:17.390Z,16.87
2019-02-02T04:49:39.553Z,17.50
2019-02-02T04:55:01.733Z,15.90
2019-02-02T05:00:24.929Z,16.67
2019-02-02T05:05:47.225Z,17.53
2019-02-02T05:11:09.403Z,17.13
2019-02-02T05:16:24.741Z,15.63
2019-02-02T05:21:46.937Z,17.80
2019-02-02T05:27:09.388Z,18.03
2019-02-02T05:32:31.614Z,17.70
2019-02-02T05:37:54.029Z,17.07
2019-02-02T05:43:16.262Z,16.83
2019-02-02T05:48:19.040Z,16.57
2019-02-02T05:53:41.305Z,16.87
2019-02-02T05:59:03.534Z,16.77
2019-02-02T06:04:26.599Z,16.10
2019-02-02T06:09:49.219Z,15.83
2019-02-02T06:14:51.902Z,17.97
2019-02-02T06:19:55.311Z,17.30
2019-02-02T06:25:17.572Z,17.30
2019-02-02T06:30:39.720Z,15.87
2019-02-02T06:35:44.664Z,16.97
2019-02-02T06:40:47.434Z,16.70
2019-02-02T06:45:50.092Z,17.27
2019-02-02T06:50:52.769Z,17.33
2019-02-02T06:55:55.440Z,16.67
2019-02-02T07:00:58.138Z,17.80
2019-02-02T07:06:20.322Z,18.27
2019-02-02T07:11:42.504Z,18.10
2019-02-02T07:16:57.813Z,16.63
2019-02-02T07:22:19.982Z,18.10
2019-02-02T07:27:42.164Z,18.00
2019-02-02T07:33:04.336Z,17.47
2019-02-02T07:38:26.505Z,18.60
2019-02-02T07:43:48.702Z,19.80
2019-02-02T07:49:10.892Z,18.87
2019-02-02T07:54:33.308Z,17.70
2019-02-02T07:59:56.741Z,19.53
2019-02-02T08:05:18.980Z,19.20
2019-02-02T08:10:41.207Z,18.90
2019-02-02T08:15:56.806Z,17.97
2019-02-02T08:21:00.105Z,20.50
2019-02-02T08:26:22.280Z,20.37
2019-02-02T08:31:44.834Z,31.50
2019-02-02T08:42:58.593Z,22.37
2019-02-02T08:48:21.451Z,21.90
2019-02-02T08:53:44.340Z,20.13
2019-02-02T08:59:08.161Z,20.73
2019-02-02T09:04:30.322Z,17.93
2019-02-02T09:09:52.651Z,20.27
2019-02-02T09:15:09.434Z,18.77
2019-02-02T09:20:32.671Z,21.40
2019-02-02T09:25:55.240Z,21.03
2019-02-02T09:31:18.257Z,20.00
2019-02-02T09:36:41.996Z,20.27
2019-02-02T09:41:45.177Z,19.97
2019-02-02T09:47:20.209Z,19.53
2019-02-02T09:52:43.132Z,21.63
2019-02-02T09:58:09.060Z,20.50
2019-02-02T10:03:11.969Z,20.33
2019-02-02T10:08:15.263Z,19.87
2019-02-02T10:13:31.250Z,21.47
2019-02-02T10:18:54.600Z,21.00
2019-02-02T10:24:16.858Z,22.07
2019-02-02T10:29:39.026Z,22.10
2019-02-02T10:34:41.712Z,22.30
2019-02-02T10:40:05.304Z,24.50
2019-02-02T10:45:27.497Z,34.33
2019-02-02T10:50:49.665Z,28.47
2019-02-02T10:56:11.829Z,25.33
2019-02-02T11:01:34.071Z,23.30
2019-02-02T11:06:56.338Z,22.50
2019-02-02T11:11:59.158Z,22.37
2019-02-02T11:17:02.117Z,22.37
2019-02-02T11:22:04.867Z,23.50
2019-02-02T11:27:07.535Z,22.07
2019-02-02T11:32:10.336Z,23.80
2019-02-02T11:37:13.343Z,23.87
2019-02-02T11:42:16.008Z,24.77
2019-02-02T11:47:18.672Z,23.53
2019-02-02T11:52:23.378Z,26.00
2019-02-02T11:57:26.214Z,25.90
2019-02-02T12:02:28.884Z,26.27
2019-02-02T12:07:31.552Z,26.47
2019-02-02T12:12:34.408Z,26.73
2019-02-02T12:17:37.068Z,32.70
2019-02-02T12:22:39.747Z,51.73
2019-02-02T12:27:42.776Z,59.53
2019-02-02T12:32:45.658Z,48.57
2019-02-02T12:37:48.341Z,32.00
2019-02-02T12:42:51.219Z,29.53
2019-02-02T12:47:54.320Z,38.43
2019-02-02T12:52:59.702Z,28.90
2019-02-02T12:58:04.107Z,27.10
2019-02-02T13:03:07.519Z,29.80
2019-02-02T13:08:10.282Z,27.73
2019-02-02T13:13:14.516Z,27.40
2019-02-02T13:18:19.018Z,25.47
2019-02-02T13:23:41.168Z,26.80
2019-02-02T13:29:03.541Z,25.80
2019-02-02T13:34:25.734Z,25.80
2019-02-02T13:39:47.923Z,25.70
2019-02-02T13:45:10.635Z,26.17
2019-02-02T13:50:32.810Z,26.70
2019-02-02T13:55:35.473Z,26.20
2019-02-02T14:00:38.151Z,27.80
2019-02-02T14:05:40.826Z,26.43
2019-02-02T14:10:43.501Z,27.60
2019-02-02T14:15:46.172Z,28.00
2019-02-02T14:20:48.833Z,27.47
2019-02-02T14:25:51.484Z,28.80
2019-02-02T14:31:13.648Z,29.37
2019-02-02T14:36:35.832Z,30.50
2019-02-02T14:41:38.523Z,29.40
2019-02-02T14:46:41.181Z,30.50
2019-02-02T14:52:03.474Z,30.97
2019-02-02T14:57:25.660Z,31.50
2019-02-02T15:02:47.874Z,30.17
2019-02-02T15:08:10.031Z,30.87
2019-02-02T15:13:25.807Z,32.00
2019-02-02T15:18:48.016Z,33.57
2019-02-02T15:24:10.164Z,31.03
2019-02-02T15:29:32.333Z,31.07
2019-02-02T15:34:54.494Z,33.40
2019-02-02T15:40:16.908Z,31.97
2019-02-02T15:45:39.081Z,32.50
2019-02-02T15:51:01.243Z,32.40
2019-02-02T15:56:23.407Z,32.77
2019-02-02T16:01:45.591Z,34.00
2019-02-02T16:07:07.762Z,33.20
2019-02-02T16:12:29.967Z,33.90
2019-02-02T16:17:52.134Z,33.60
2019-02-02T16:23:14.298Z,33.17
2019-02-02T16:28:16.966Z,34.67
2019-02-02T16:33:39.152Z,33.67
2019-02-02T16:39:01.328Z,33.20
2019-02-02T16:44:23.498Z,34.30
2019-02-02T16:49:45.665Z,33.90
2019-02-02T16:54:48.326Z,33.90
2019-02-02T17:00:34.105Z,33.73
2019-02-02T17:05:56.295Z,33.57
2019-02-02T17:11:18.474Z,33.13
2019-02-02T17:16:21.185Z,33.10
2019-02-02T17:21:23.856Z,32.30
2019-02-02T17:26:26.675Z,34.97
2019-02-02T17:31:29.425Z,35.60
2019-02-02T17:36:32.102Z,35.60
2019-02-02T17:41:34.768Z,34.57
2019-02-02T17:46:56.973Z,36.20
2019-02-02T17:51:59.642Z,35.47
2019-02-02T17:57:02.324Z,34.50
2019-02-02T18:02:24.503Z,33.47
2019-02-02T18:07:46.677Z,33.10
2019-02-02T18:13:02.089Z,34.43
2019-02-02T18:18:24.237Z,34.20
2019-02-02T18:23:46.413Z,31.77
2019-02-02T18:29:08.602Z,32.17
2019-02-02T18:34:30.773Z,34.00
2019-02-02T18:39:52.937Z,34.30
2019-02-02T18:45:18.051Z,34.10
2019-02-02T18:50:40.227Z,35.17
2019-02-02T18:56:06.963Z,34.50
2019-02-02T19:01:29.148Z,34.47
2019-02-02T19:06:51.318Z,33.40
2019-02-02T19:12:13.501Z,33.57
2019-02-02T19:17:16.185Z,33.00
2019-02-02T19:22:18.855Z,34.23
2019-02-02T19:27:21.614Z,33.63
2019-02-02T19:32:24.294Z,35.20
2019-02-02T19:37:26.975Z,35.17
2019-02-02T19:42:31.416Z,35.53
2019-02-02T19:47:34.667Z,34.90
2019-02-02T19:52:40.195Z,33.63
2019-02-02T19:57:42.153Z,34.67
2019-02-02T20:02:44.863Z,34.40
2019-02-02T20:07:47.659Z,36.83
2019-02-02T20:12:50.397Z,37.27
2019-02-02T20:17:53.074Z,34.33
2019-02-02T20:22:55.941Z,36.53
2019-02-02T20:28:18.122Z,35.93
2019-02-02T20:33:40.443Z,36.40
2019-02-02T20:38:43.089Z,35.30
2019-02-02T20:44:05.389Z,35.33
2019-02-02T20:49:27.557Z,34.67
2019-02-02T20:54:30.221Z,35.43
2019-02-02T20:59:52.391Z,36.67
2019-02-02T21:05:14.880Z,36.93
2019-02-02T21:10:37.064Z,35.27
2019-02-02T21:15:52.846Z,35.83
2019-02-02T21:21:15.039Z,38.47
2019-02-02T21:26:17.716Z,39.63
2019-02-02T21:31:39.907Z,38.20
2019-02-02T21:37:02.076Z,34.60
2019-02-02T21:42:24.242Z,37.60
2019-02-02T21:47:46.483Z,34.10
2019-02-02T21:53:08.652Z,34.50
2019-02-02T21:58:30.822Z,35.20
2019-02-02T22:03:53.010Z,35.70
2019-02-02T22:08:55.887Z,35.07
2019-02-02T22:14:11.404Z,35.77
2019-02-02T22:19:33.578Z,35.37
2019-02-02T22:24:57.646Z,35.57
2019-02-02T22:30:24.904Z,34.50
2019-02-02T22:35:47.095Z,34.53
2019-02-02T22:41:09.273Z,32.70
2019-02-02T22:46:31.843Z,33.93
2019-02-02T22:51:54.038Z,32.40
2019-02-02T22:57:16.229Z,35.57
2019-02-02T23:02:21.403Z,35.40
2019-02-02T23:08:22.568Z,37.67
2019-02-02T23:13:57.882Z,35.93
2019-02-02T23:19:20.061Z,35.97
2019-02-02T23:24:42.234Z,36.77
2019-02-02T23:35:55.245Z,38.13
2019-02-02T23:41:17.428Z,39.03
2019-02-02T23:46:39.583Z,38.10
2019-02-02T23:52:01.749Z,35.70
2019-02-02T23:57:23.930Z,32.40
